Terminal Aerodrome Forecast
Issued by NWS

Home | Current Version | Previous Version | Text Only | Print | Product List | Glossary On
Versions: 1 2 3 4 5 6 7 8 9 10 11 12 13 14 15 16 17 18 19 20 21 22 23
651
FTUS44 KEWX 181319 AAA
TAFSSF
TAF AMD
KSSF 181319Z 1813/1912 18003KT P6SM OVC019
     FM181600 28006KT P6SM BKN019
     FM181800 34015G25KT P6SM SCT250
     FM182000 01019G29KT P6SM SCT250
     FM190300 01008KT P6SM SKC=

USA.gov is the U.S. government's official web portal to all federal, state and local government web resources and services.